sensor_id;sensor_type;location;lat;lon;timestamp;P1;durP1;ratioP1;P2;durP2;ratioP2
46084;SDS011;31823;47.032;8.310;2022-11-13T00:00:34;62.10;;;31.48;;
46084;SDS011;31823;47.032;8.310;2022-11-13T00:03:00;61.65;;;30.20;;
46084;SDS011;31823;47.032;8.310;2022-11-13T00:05:26;58.35;;;28.88;;
46084;SDS011;31823;47.032;8.310;2022-11-13T00:07:52;65.32;;;29.85;;
46084;SDS011;31823;47.032;8.310;2022-11-13T00:10:18;61.10;;;30.50;;
46084;SDS011;31823;47.032;8.310;2022-11-13T00:12:43;55.63;;;28.85;;
46084;SDS011;31823;47.032;8.310;2022-11-13T00:15:09;55.10;;;27.40;;
46084;SDS011;31823;47.032;8.310;2022-11-13T00:17:35;58.55;;;29.48;;
46084;SDS011;31823;47.032;8.310;2022-11-13T00:20:01;56.25;;;29.23;;
46084;SDS011;31823;47.032;8.310;2022-11-13T00:22:27;55.03;;;29.20;;
46084;SDS011;31823;47.032;8.310;2022-11-13T00:24:52;58.70;;;29.40;;
46084;SDS011;31823;47.032;8.310;2022-11-13T00:27:18;59.38;;;28.92;;
46084;SDS011;31823;47.032;8.310;2022-11-13T00:29:44;55.75;;;29.02;;
46084;SDS011;31823;47.032;8.310;2022-11-13T00:32:09;51.95;;;26.95;;
46084;SDS011;31823;47.032;8.310;2022-11-13T00:34:35;53.88;;;27.48;;
46084;SDS011;31823;47.032;8.310;2022-11-13T00:37:01;54.67;;;27.23;;
46084;SDS011;31823;47.032;8.310;2022-11-13T00:39:26;49.90;;;25.17;;
46084;SDS011;31823;47.032;8.310;2022-11-13T00:41:52;49.03;;;25.17;;
46084;SDS011;31823;47.032;8.310;2022-11-13T00:44:18;51.00;;;25.15;;
46084;SDS011;31823;47.032;8.310;2022-11-13T00:46:43;51.33;;;26.35;;
46084;SDS011;31823;47.032;8.310;2022-11-13T00:49:09;50.65;;;26.17;;
46084;SDS011;31823;47.032;8.310;2022-11-13T00:51:35;48.55;;;25.30;;
46084;SDS011;31823;47.032;8.310;2022-11-13T00:54:00;46.92;;;24.58;;
46084;SDS011;31823;47.032;8.310;2022-11-13T00:56:26;46.33;;;23.88;;
46084;SDS011;31823;47.032;8.310;2022-11-13T00:58:52;50.58;;;27.02;;
46084;SDS011;31823;47.032;8.310;2022-11-13T01:01:18;48.45;;;25.33;;
46084;SDS011;31823;47.032;8.310;2022-11-13T01:03:44;52.88;;;26.70;;
46084;SDS011;31823;47.032;8.310;2022-11-13T01:06:23;55.88;;;27.48;;
46084;SDS011;31823;47.032;8.310;2022-11-13T01:08:52;50.05;;;25.50;;
46084;SDS011;31823;47.032;8.310;2022-11-13T01:11:20;51.25;;;26.55;;
46084;SDS011;31823;47.032;8.310;2022-11-13T01:13:48;58.97;;;29.63;;
46084;SDS011;31823;47.032;8.310;2022-11-13T01:16:15;53.30;;;26.85;;
46084;SDS011;31823;47.032;8.310;2022-11-13T01:18:42;55.78;;;26.77;;
46084;SDS011;31823;47.032;8.310;2022-11-13T01:21:12;48.25;;;25.20;;
46084;SDS011;31823;47.032;8.310;2022-11-13T01:23:48;53.10;;;26.23;;
46084;SDS011;31823;47.032;8.310;2022-11-13T01:28:42;54.72;;;27.45;;
46084;SDS011;31823;47.032;8.310;2022-11-13T01:31:09;57.63;;;28.42;;
46084;SDS011;31823;47.032;8.310;2022-11-13T01:33:39;62.28;;;28.20;;
46084;SDS011;31823;47.032;8.310;2022-11-13T01:36:06;66.07;;;30.58;;
46084;SDS011;31823;47.032;8.310;2022-11-13T01:38:34;60.88;;;29.88;;
46084;SDS011;31823;47.032;8.310;2022-11-13T01:41:00;54.03;;;26.58;;
46084;SDS011;31823;47.032;8.310;2022-11-13T01:43:27;54.05;;;28.20;;
46084;SDS011;31823;47.032;8.310;2022-11-13T01:48:37;58.22;;;28.75;;
46084;SDS011;31823;47.032;8.310;2022-11-13T01:51:08;56.45;;;27.65;;
46084;SDS011;31823;47.032;8.310;2022-11-13T01:53:41;57.10;;;28.40;;
46084;SDS011;31823;47.032;8.310;2022-11-13T01:56:09;57.78;;;28.33;;
46084;SDS011;31823;47.032;8.310;2022-11-13T01:58:35;59.35;;;28.77;;
46084;SDS011;31823;47.032;8.310;2022-11-13T02:01:03;48.10;;;24.40;;
46084;SDS011;31823;47.032;8.310;2022-11-13T02:03:29;59.08;;;29.50;;
46084;SDS011;31823;47.032;8.310;2022-11-13T02:05:54;57.25;;;28.52;;
46084;SDS011;31823;47.032;8.310;2022-11-13T02:08:20;53.55;;;28.20;;
46084;SDS011;31823;47.032;8.310;2022-11-13T02:10:46;53.03;;;27.92;;
46084;SDS011;31823;47.032;8.310;2022-11-13T02:13:12;57.47;;;27.00;;
46084;SDS011;31823;47.032;8.310;2022-11-13T02:15:38;54.55;;;28.23;;
46084;SDS011;31823;47.032;8.310;2022-11-13T02:18:05;56.15;;;27.50;;
46084;SDS011;31823;47.032;8.310;2022-11-13T02:25:37;53.90;;;26.25;;
46084;SDS011;31823;47.032;8.310;2022-11-13T02:28:05;50.05;;;25.40;;
46084;SDS011;31823;47.032;8.310;2022-11-13T02:30:33;53.72;;;26.40;;
46084;SDS011;31823;47.032;8.310;2022-11-13T02:32:59;52.42;;;25.50;;
46084;SDS011;31823;47.032;8.310;2022-11-13T02:37:51;55.17;;;26.85;;
46084;SDS011;31823;47.032;8.310;2022-11-13T02:40:18;50.20;;;26.48;;
46084;SDS011;31823;47.032;8.310;2022-11-13T02:42:44;52.72;;;25.10;;
46084;SDS011;31823;47.032;8.310;2022-11-13T02:45:10;55.80;;;27.08;;
46084;SDS011;31823;47.032;8.310;2022-11-13T02:47:35;58.05;;;27.63;;
46084;SDS011;31823;47.032;8.310;2022-11-13T02:50:01;53.25;;;26.33;;
46084;SDS011;31823;47.032;8.310;2022-11-13T02:52:28;55.28;;;27.52;;
46084;SDS011;31823;47.032;8.310;2022-11-13T02:54:55;47.83;;;23.98;;
46084;SDS011;31823;47.032;8.310;2022-11-13T02:57:21;55.08;;;27.83;;
46084;SDS011;31823;47.032;8.310;2022-11-13T02:59:47;52.10;;;24.85;;
46084;SDS011;31823;47.032;8.310;2022-11-13T03:02:12;54.92;;;25.90;;
46084;SDS011;31823;47.032;8.310;2022-11-13T03:04:38;53.47;;;27.02;;
46084;SDS011;31823;47.032;8.310;2022-11-13T03:07:04;43.67;;;22.73;;
46084;SDS011;31823;47.032;8.310;2022-11-13T03:09:29;48.75;;;23.50;;
46084;SDS011;31823;47.032;8.310;2022-11-13T03:11:55;50.33;;;24.67;;
46084;SDS011;31823;47.032;8.310;2022-11-13T03:14:21;51.13;;;25.42;;
46084;SDS011;31823;47.032;8.310;2022-11-13T03:16:46;48.70;;;24.92;;
46084;SDS011;31823;47.032;8.310;2022-11-13T03:19:12;51.70;;;25.80;;
46084;SDS011;31823;47.032;8.310;2022-11-13T03:21:38;51.70;;;25.20;;
46084;SDS011;31823;47.032;8.310;2022-11-13T03:24:04;49.80;;;24.80;;
46084;SDS011;31823;47.032;8.310;2022-11-13T03:26:29;53.92;;;25.88;;
46084;SDS011;31823;47.032;8.310;2022-11-13T03:28:55;50.85;;;25.60;;
46084;SDS011;31823;47.032;8.310;2022-11-13T03:31:21;52.17;;;26.67;;
46084;SDS011;31823;47.032;8.310;2022-11-13T03:33:46;54.30;;;26.83;;
46084;SDS011;31823;47.032;8.310;2022-11-13T03:36:12;55.10;;;26.13;;
46084;SDS011;31823;47.032;8.310;2022-11-13T03:38:38;57.63;;;27.08;;
46084;SDS011;31823;47.032;8.310;2022-11-13T03:41:04;52.58;;;25.85;;
46084;SDS011;31823;47.032;8.310;2022-11-13T03:43:29;52.33;;;26.10;;
46084;SDS011;31823;47.032;8.310;2022-11-13T03:45:55;53.58;;;26.73;;
46084;SDS011;31823;47.032;8.310;2022-11-13T03:48:21;50.20;;;25.30;;
46084;SDS011;31823;47.032;8.310;2022-11-13T03:50:48;53.72;;;25.38;;
46084;SDS011;31823;47.032;8.310;2022-11-13T03:53:15;54.92;;;27.15;;
46084;SDS011;31823;47.032;8.310;2022-11-13T03:55:41;52.70;;;27.23;;
46084;SDS011;31823;47.032;8.310;2022-11-13T03:58:07;49.38;;;25.60;;
46084;SDS011;31823;47.032;8.310;2022-11-13T04:00:33;53.13;;;25.50;;
46084;SDS011;31823;47.032;8.310;2022-11-13T04:02:59;53.53;;;27.27;;
46084;SDS011;31823;47.032;8.310;2022-11-13T04:05:26;54.42;;;24.77;;
46084;SDS011;31823;47.032;8.310;2022-11-13T04:07:52;51.60;;;25.73;;
46084;SDS011;31823;47.032;8.310;2022-11-13T04:10:18;53.78;;;25.20;;
46084;SDS011;31823;47.032;8.310;2022-11-13T04:12:44;46.08;;;23.65;;
46084;SDS011;31823;47.032;8.310;2022-11-13T04:15:09;44.33;;;22.92;;
46084;SDS011;31823;47.032;8.310;2022-11-13T04:17:35;52.22;;;26.52;;
46084;SDS011;31823;47.032;8.310;2022-11-13T04:20:01;52.58;;;27.13;;
46084;SDS011;31823;47.032;8.310;2022-11-13T04:22:27;53.83;;;27.98;;
46084;SDS011;31823;47.032;8.310;2022-11-13T04:24:52;51.42;;;25.30;;
46084;SDS011;31823;47.032;8.310;2022-11-13T04:27:18;52.35;;;26.05;;
46084;SDS011;31823;47.032;8.310;2022-11-13T04:29:44;50.97;;;25.23;;
46084;SDS011;31823;47.032;8.310;2022-11-13T04:32:09;54.90;;;25.60;;
46084;SDS011;31823;47.032;8.310;2022-11-13T04:34:35;65.53;;;28.58;;
46084;SDS011;31823;47.032;8.310;2022-11-13T04:37:01;54.40;;;25.83;;
46084;SDS011;31823;47.032;8.310;2022-11-13T04:39:26;49.35;;;27.10;;
46084;SDS011;31823;47.032;8.310;2022-11-13T04:41:52;51.40;;;26.80;;
46084;SDS011;31823;47.032;8.310;2022-11-13T04:44:36;60.83;;;27.63;;
46084;SDS011;31823;47.032;8.310;2022-11-13T04:47:02;48.13;;;23.67;;
46084;SDS011;31823;47.032;8.310;2022-11-13T04:49:28;54.97;;;25.45;;
46084;SDS011;31823;47.032;8.310;2022-11-13T04:51:53;54.25;;;24.77;;
46084;SDS011;31823;47.032;8.310;2022-11-13T04:54:19;64.90;;;28.65;;
46084;SDS011;31823;47.032;8.310;2022-11-13T04:56:45;56.53;;;28.00;;
46084;SDS011;31823;47.032;8.310;2022-11-13T04:59:10;50.70;;;24.70;;
46084;SDS011;31823;47.032;8.310;2022-11-13T05:01:36;52.47;;;24.60;;
46084;SDS011;31823;47.032;8.310;2022-11-13T05:04:02;51.75;;;24.52;;
46084;SDS011;31823;47.032;8.310;2022-11-13T05:06:28;48.15;;;23.98;;
46084;SDS011;31823;47.032;8.310;2022-11-13T05:08:53;49.47;;;24.05;;
46084;SDS011;31823;47.032;8.310;2022-11-13T05:11:19;55.95;;;24.13;;
46084;SDS011;31823;47.032;8.310;2022-11-13T05:13:45;56.03;;;26.83;;
46084;SDS011;31823;47.032;8.310;2022-11-13T05:16:11;51.22;;;25.67;;
46084;SDS011;31823;47.032;8.310;2022-11-13T05:18:38;59.80;;;26.65;;
46084;SDS011;31823;47.032;8.310;2022-11-13T05:21:04;58.63;;;26.08;;
46084;SDS011;31823;47.032;8.310;2022-11-13T05:23:31;54.20;;;24.98;;
46084;SDS011;31823;47.032;8.310;2022-11-13T05:26:04;54.78;;;24.98;;
46084;SDS011;31823;47.032;8.310;2022-11-13T05:28:32;50.97;;;23.48;;
46084;SDS011;31823;47.032;8.310;2022-11-13T05:31:05;51.80;;;23.75;;
46084;SDS011;31823;47.032;8.310;2022-11-13T05:33:33;51.58;;;23.88;;
46084;SDS011;31823;47.032;8.310;2022-11-13T05:36:03;53.28;;;24.27;;
46084;SDS011;31823;47.032;8.310;2022-11-13T05:38:31;55.30;;;23.70;;
46084;SDS011;31823;47.032;8.310;2022-11-13T05:41:00;51.20;;;22.98;;
46084;SDS011;31823;47.032;8.310;2022-11-13T05:43:31;51.28;;;22.85;;
46084;SDS011;31823;47.032;8.310;2022-11-13T05:46:04;49.55;;;23.25;;
46084;SDS011;31823;47.032;8.310;2022-11-13T05:48:34;48.17;;;22.75;;
46084;SDS011;31823;47.032;8.310;2022-11-13T05:51:04;50.08;;;22.15;;
46084;SDS011;31823;47.032;8.310;2022-11-13T05:53:30;51.25;;;24.58;;
46084;SDS011;31823;47.032;8.310;2022-11-13T05:56:01;49.67;;;24.25;;
46084;SDS011;31823;47.032;8.310;2022-11-13T05:58:47;50.30;;;24.48;;
46084;SDS011;31823;47.032;8.310;2022-11-13T06:03:42;52.67;;;24.95;;
46084;SDS011;31823;47.032;8.310;2022-11-13T06:06:09;52.97;;;25.40;;
46084;SDS011;31823;47.032;8.310;2022-11-13T06:08:37;51.20;;;24.30;;
46084;SDS011;31823;47.032;8.310;2022-11-13T06:11:07;47.33;;;23.33;;
46084;SDS011;31823;47.032;8.310;2022-11-13T06:13:35;55.65;;;25.27;;
46084;SDS011;31823;47.032;8.310;2022-11-13T06:16:02;57.80;;;25.35;;
46084;SDS011;31823;47.032;8.310;2022-11-13T06:18:33;49.95;;;24.38;;
46084;SDS011;31823;47.032;8.310;2022-11-13T06:20:59;57.28;;;24.17;;
46084;SDS011;31823;47.032;8.310;2022-11-13T06:23:31;52.78;;;24.45;;
46084;SDS011;31823;47.032;8.310;2022-11-13T06:25:59;51.20;;;24.77;;
46084;SDS011;31823;47.032;8.310;2022-11-13T06:28:29;55.03;;;24.70;;
46084;SDS011;31823;47.032;8.310;2022-11-13T06:31:00;49.75;;;24.83;;
46084;SDS011;31823;47.032;8.310;2022-11-13T06:33:29;53.22;;;24.42;;
46084;SDS011;31823;47.032;8.310;2022-11-13T06:35:55;50.83;;;24.60;;
46084;SDS011;31823;47.032;8.310;2022-11-13T06:38:21;55.08;;;25.13;;
46084;SDS011;31823;47.032;8.310;2022-11-13T06:40:46;53.00;;;24.27;;
46084;SDS011;31823;47.032;8.310;2022-11-13T06:43:12;52.30;;;24.50;;
46084;SDS011;31823;47.032;8.310;2022-11-13T06:45:38;53.42;;;25.15;;
46084;SDS011;31823;47.032;8.310;2022-11-13T06:48:03;49.63;;;24.67;;
46084;SDS011;31823;47.032;8.310;2022-11-13T06:50:29;48.58;;;24.90;;
46084;SDS011;31823;47.032;8.310;2022-11-13T06:52:55;59.13;;;24.05;;
46084;SDS011;31823;47.032;8.310;2022-11-13T06:55:21;48.05;;;24.25;;
46084;SDS011;31823;47.032;8.310;2022-11-13T06:57:48;47.45;;;23.50;;
46084;SDS011;31823;47.032;8.310;2022-11-13T07:00:14;46.85;;;23.95;;
46084;SDS011;31823;47.032;8.310;2022-11-13T07:02:40;51.25;;;25.40;;
46084;SDS011;31823;47.032;8.310;2022-11-13T07:05:06;48.15;;;23.48;;
46084;SDS011;31823;47.032;8.310;2022-11-13T07:07:32;52.92;;;23.13;;
46084;SDS011;31823;47.032;8.310;2022-11-13T07:09:57;48.80;;;25.08;;
46084;SDS011;31823;47.032;8.310;2022-11-13T07:12:23;53.55;;;24.35;;
46084;SDS011;31823;47.032;8.310;2022-11-13T07:14:49;50.22;;;24.13;;
46084;SDS011;31823;47.032;8.310;2022-11-13T07:17:14;47.05;;;24.02;;
46084;SDS011;31823;47.032;8.310;2022-11-13T07:19:40;49.78;;;24.98;;
46084;SDS011;31823;47.032;8.310;2022-11-13T07:22:05;43.30;;;22.55;;
46084;SDS011;31823;47.032;8.310;2022-11-13T07:24:31;47.63;;;22.98;;
46084;SDS011;31823;47.032;8.310;2022-11-13T07:26:57;50.22;;;24.08;;
46084;SDS011;31823;47.032;8.310;2022-11-13T07:29:22;45.85;;;22.85;;
46084;SDS011;31823;47.032;8.310;2022-11-13T07:31:48;42.92;;;22.60;;
46084;SDS011;31823;47.032;8.310;2022-11-13T07:34:13;43.40;;;21.55;;
46084;SDS011;31823;47.032;8.310;2022-11-13T07:36:39;41.03;;;21.80;;
46084;SDS011;31823;47.032;8.310;2022-11-13T07:39:05;41.33;;;20.65;;
46084;SDS011;31823;47.032;8.310;2022-11-13T07:41:30;42.22;;;20.63;;
46084;SDS011;31823;47.032;8.310;2022-11-13T07:43:56;43.63;;;21.60;;
46084;SDS011;31823;47.032;8.310;2022-11-13T07:46:21;38.50;;;20.60;;
46084;SDS011;31823;47.032;8.310;2022-11-13T07:48:47;40.45;;;20.42;;
46084;SDS011;31823;47.032;8.310;2022-11-13T07:51:13;44.63;;;21.27;;
46084;SDS011;31823;47.032;8.310;2022-11-13T07:53:38;42.72;;;20.77;;
46084;SDS011;31823;47.032;8.310;2022-11-13T07:56:04;40.47;;;19.75;;
46084;SDS011;31823;47.032;8.310;2022-11-13T07:58:30;42.90;;;21.45;;
46084;SDS011;31823;47.032;8.310;2022-11-13T08:01:00;44.08;;;21.13;;
46084;SDS011;31823;47.032;8.310;2022-11-13T08:03:29;41.42;;;20.40;;
46084;SDS011;31823;47.032;8.310;2022-11-13T08:06:03;37.53;;;21.23;;
46084;SDS011;31823;47.032;8.310;2022-11-13T08:08:30;39.17;;;19.15;;
46084;SDS011;31823;47.032;8.310;2022-11-13T08:10:57;43.40;;;20.67;;
46084;SDS011;31823;47.032;8.310;2022-11-13T08:13:22;45.20;;;21.45;;
46084;SDS011;31823;47.032;8.310;2022-11-13T08:15:48;42.45;;;20.67;;
46084;SDS011;31823;47.032;8.310;2022-11-13T08:18:14;42.33;;;20.40;;
46084;SDS011;31823;47.032;8.310;2022-11-13T08:20:40;44.38;;;20.95;;
46084;SDS011;31823;47.032;8.310;2022-11-13T08:23:06;40.85;;;19.98;;
46084;SDS011;31823;47.032;8.310;2022-11-13T08:25:32;39.38;;;20.13;;
46084;SDS011;31823;47.032;8.310;2022-11-13T08:27:59;40.95;;;20.40;;
46084;SDS011;31823;47.032;8.310;2022-11-13T08:30:26;46.53;;;20.67;;
46084;SDS011;31823;47.032;8.310;2022-11-13T08:32:52;42.65;;;20.48;;
46084;SDS011;31823;47.032;8.310;2022-11-13T08:35:18;38.95;;;20.83;;
46084;SDS011;31823;47.032;8.310;2022-11-13T08:37:47;42.05;;;21.38;;
46084;SDS011;31823;47.032;8.310;2022-11-13T08:40:17;45.55;;;22.15;;
46084;SDS011;31823;47.032;8.310;2022-11-13T08:42:42;42.40;;;21.25;;
46084;SDS011;31823;47.032;8.310;2022-11-13T08:45:08;44.42;;;22.73;;
46084;SDS011;31823;47.032;8.310;2022-11-13T08:47:34;41.60;;;19.52;;
46084;SDS011;31823;47.032;8.310;2022-11-13T08:50:01;38.03;;;20.27;;
46084;SDS011;31823;47.032;8.310;2022-11-13T08:52:28;40.30;;;19.90;;
46084;SDS011;31823;47.032;8.310;2022-11-13T08:54:53;42.10;;;21.10;;
46084;SDS011;31823;47.032;8.310;2022-11-13T08:57:19;38.40;;;20.17;;
46084;SDS011;31823;47.032;8.310;2022-11-13T08:59:45;40.83;;;21.20;;
46084;SDS011;31823;47.032;8.310;2022-11-13T09:02:14;39.45;;;20.98;;
46084;SDS011;31823;47.032;8.310;2022-11-13T09:04:40;42.92;;;20.83;;
46084;SDS011;31823;47.032;8.310;2022-11-13T09:07:06;38.85;;;20.30;;
46084;SDS011;31823;47.032;8.310;2022-11-13T09:09:32;39.20;;;20.42;;
46084;SDS011;31823;47.032;8.310;2022-11-13T09:11:58;40.22;;;19.85;;
46084;SDS011;31823;47.032;8.310;2022-11-13T09:14:24;37.17;;;18.92;;
46084;SDS011;31823;47.032;8.310;2022-11-13T09:16:52;32.58;;;18.60;;
46084;SDS011;31823;47.032;8.310;2022-11-13T09:19:17;38.08;;;18.67;;
46084;SDS011;31823;47.032;8.310;2022-11-13T09:21:43;36.30;;;18.88;;
46084;SDS011;31823;47.032;8.310;2022-11-13T09:24:08;39.38;;;17.52;;
46084;SDS011;31823;47.032;8.310;2022-11-13T09:26:34;31.73;;;17.15;;
46084;SDS011;31823;47.032;8.310;2022-11-13T09:29:00;35.75;;;18.75;;
46084;SDS011;31823;47.032;8.310;2022-11-13T09:31:26;36.05;;;19.42;;
46084;SDS011;31823;47.032;8.310;2022-11-13T09:33:51;36.33;;;18.52;;
46084;SDS011;31823;47.032;8.310;2022-11-13T09:36:17;30.25;;;18.25;;
46084;SDS011;31823;47.032;8.310;2022-11-13T09:38:43;35.35;;;17.63;;
46084;SDS011;31823;47.032;8.310;2022-11-13T09:41:27;36.55;;;19.30;;
46084;SDS011;31823;47.032;8.310;2022-11-13T09:44:00;31.52;;;17.65;;
46084;SDS011;31823;47.032;8.310;2022-11-13T09:49:10;33.28;;;17.20;;
46084;SDS011;31823;47.032;8.310;2022-11-13T09:51:51;37.00;;;19.45;;
46084;SDS011;31823;47.032;8.310;2022-11-13T09:54:19;36.50;;;19.35;;
46084;SDS011;31823;47.032;8.310;2022-11-13T10:12:47;33.53;;;17.42;;
46084;SDS011;31823;47.032;8.310;2022-11-13T10:15:16;31.13;;;16.92;;
46084;SDS011;31823;47.032;8.310;2022-11-13T10:17:47;39.15;;;17.45;;
46084;SDS011;31823;47.032;8.310;2022-11-13T10:20:34;32.53;;;18.38;;
46084;SDS011;31823;47.032;8.310;2022-11-13T10:23:10;33.17;;;16.95;;
46084;SDS011;31823;47.032;8.310;2022-11-13T10:25:37;31.17;;;17.13;;
46084;SDS011;31823;47.032;8.310;2022-11-13T10:28:10;36.88;;;19.70;;
46084;SDS011;31823;47.032;8.310;2022-11-13T10:33:07;34.70;;;17.30;;
46084;SDS011;31823;47.032;8.310;2022-11-13T10:38:07;31.58;;;16.73;;
46084;SDS011;31823;47.032;8.310;2022-11-13T10:40:49;34.60;;;18.20;;
46084;SDS011;31823;47.032;8.310;2022-11-13T10:43:19;35.28;;;18.77;;
46084;SDS011;31823;47.032;8.310;2022-11-13T10:46:00;38.05;;;19.77;;
46084;SDS011;31823;47.032;8.310;2022-11-13T10:48:28;36.83;;;18.25;;
46084;SDS011;31823;47.032;8.310;2022-11-13T10:51:04;39.75;;;19.90;;
46084;SDS011;31823;47.032;8.310;2022-11-13T10:53:48;41.60;;;21.05;;
46084;SDS011;31823;47.032;8.310;2022-11-13T10:56:24;37.25;;;19.23;;
46084;SDS011;31823;47.032;8.310;2022-11-13T10:59:10;39.15;;;19.63;;
46084;SDS011;31823;47.032;8.310;2022-11-13T11:01:36;34.05;;;17.77;;
46084;SDS011;31823;47.032;8.310;2022-11-13T11:04:03;37.17;;;18.73;;
46084;SDS011;31823;47.032;8.310;2022-11-13T11:06:33;38.47;;;19.80;;
46084;SDS011;31823;47.032;8.310;2022-11-13T11:11:45;39.65;;;20.50;;
46084;SDS011;31823;47.032;8.310;2022-11-13T11:15:27;35.33;;;18.42;;
46084;SDS011;31823;47.032;8.310;2022-11-13T11:17:53;34.85;;;20.38;;
46084;SDS011;31823;47.032;8.310;2022-11-13T11:20:36;35.35;;;18.67;;
46084;SDS011;31823;47.032;8.310;2022-11-13T11:26:28;39.20;;;19.92;;
46084;SDS011;31823;47.032;8.310;2022-11-13T11:31:44;36.83;;;19.70;;
46084;SDS011;31823;47.032;8.310;2022-11-13T11:34:16;38.42;;;20.13;;
46084;SDS011;31823;47.032;8.310;2022-11-13T11:48:14;38.28;;;19.55;;
46084;SDS011;31823;47.032;8.310;2022-11-13T11:56:33;37.22;;;19.90;;
46084;SDS011;31823;47.032;8.310;2022-11-13T11:59:16;34.38;;;19.08;;
46084;SDS011;31823;47.032;8.310;2022-11-13T12:09:55;39.15;;;21.27;;
46084;SDS011;31823;47.032;8.310;2022-11-13T12:18:00;36.55;;;20.52;;
46084;SDS011;31823;47.032;8.310;2022-11-13T12:20:46;36.22;;;19.67;;
46084;SDS011;31823;47.032;8.310;2022-11-13T12:36:58;32.60;;;17.90;;
46084;SDS011;31823;47.032;8.310;2022-11-13T12:39:37;30.73;;;17.50;;
46084;SDS011;31823;47.032;8.310;2022-11-13T12:42:34;40.40;;;19.70;;
46084;SDS011;31823;47.032;8.310;2022-11-13T12:45:11;34.30;;;19.45;;
46084;SDS011;31823;47.032;8.310;2022-11-13T12:50:40;33.30;;;17.63;;
46084;SDS011;31823;47.032;8.310;2022-11-13T12:53:08;34.33;;;18.92;;
46084;SDS011;31823;47.032;8.310;2022-11-13T12:55:35;37.30;;;19.13;;
46084;SDS011;31823;47.032;8.310;2022-11-13T13:17:03;35.58;;;18.75;;
46084;SDS011;31823;47.032;8.310;2022-11-13T13:19:31;32.05;;;17.63;;
46084;SDS011;31823;47.032;8.310;2022-11-13T13:21:57;34.03;;;18.67;;
46084;SDS011;31823;47.032;8.310;2022-11-13T13:24:28;28.88;;;16.58;;
46084;SDS011;31823;47.032;8.310;2022-11-13T13:27:01;37.10;;;18.55;;
46084;SDS011;31823;47.032;8.310;2022-11-13T13:29:49;31.90;;;17.65;;
46084;SDS011;31823;47.032;8.310;2022-11-13T13:37:58;35.70;;;18.73;;
46084;SDS011;31823;47.032;8.310;2022-11-13T13:40:40;35.60;;;19.83;;
46084;SDS011;31823;47.032;8.310;2022-11-13T13:46:18;37.13;;;18.60;;
46084;SDS011;31823;47.032;8.310;2022-11-13T13:48:46;28.75;;;17.35;;
46084;SDS011;31823;47.032;8.310;2022-11-13T13:51:33;34.80;;;18.25;;
46084;SDS011;31823;47.032;8.310;2022-11-13T13:54:00;30.92;;;16.70;;
46084;SDS011;31823;47.032;8.310;2022-11-13T13:56:29;33.53;;;16.98;;
46084;SDS011;31823;47.032;8.310;2022-11-13T13:58:56;29.55;;;16.27;;
46084;SDS011;31823;47.032;8.310;2022-11-13T14:01:31;34.42;;;18.15;;
46084;SDS011;31823;47.032;8.310;2022-11-13T14:04:16;34.83;;;17.83;;
46084;SDS011;31823;47.032;8.310;2022-11-13T14:06:50;32.45;;;18.50;;
46084;SDS011;31823;47.032;8.310;2022-11-13T14:09:18;31.98;;;17.80;;
46084;SDS011;31823;47.032;8.310;2022-11-13T14:11:46;29.23;;;17.13;;
46084;SDS011;31823;47.032;8.310;2022-11-13T14:14:19;34.30;;;18.08;;
46084;SDS011;31823;47.032;8.310;2022-11-13T14:16:50;32.63;;;18.30;;
46084;SDS011;31823;47.032;8.310;2022-11-13T14:19:17;35.65;;;19.45;;
46084;SDS011;31823;47.032;8.310;2022-11-13T14:21:43;29.80;;;16.40;;
46084;SDS011;31823;47.032;8.310;2022-11-13T14:24:14;36.88;;;19.95;;
46084;SDS011;31823;47.032;8.310;2022-11-13T14:26:52;32.28;;;18.55;;
46084;SDS011;31823;47.032;8.310;2022-11-13T14:32:09;31.73;;;17.35;;
46084;SDS011;31823;47.032;8.310;2022-11-13T14:34:46;33.75;;;17.60;;
46084;SDS011;31823;47.032;8.310;2022-11-13T14:39:45;26.50;;;15.70;;
46084;SDS011;31823;47.032;8.310;2022-11-13T14:42:14;27.00;;;15.80;;
46084;SDS011;31823;47.032;8.310;2022-11-13T14:45:04;30.73;;;17.52;;
46084;SDS011;31823;47.032;8.310;2022-11-13T14:47:57;27.92;;;16.20;;
46084;SDS011;31823;47.032;8.310;2022-11-13T14:50:28;33.22;;;17.45;;
46084;SDS011;31823;47.032;8.310;2022-11-13T14:55:36;34.08;;;17.95;;
46084;SDS011;31823;47.032;8.310;2022-11-13T14:58:13;32.15;;;16.98;;
46084;SDS011;31823;47.032;8.310;2022-11-13T15:00:39;31.10;;;16.80;;
46084;SDS011;31823;47.032;8.310;2022-11-13T15:03:04;29.95;;;17.77;;
46084;SDS011;31823;47.032;8.310;2022-11-13T15:05:30;34.80;;;19.15;;
46084;SDS011;31823;47.032;8.310;2022-11-13T15:07:57;34.90;;;17.48;;
46084;SDS011;31823;47.032;8.310;2022-11-13T15:10:24;33.05;;;17.95;;
46084;SDS011;31823;47.032;8.310;2022-11-13T15:12:51;30.40;;;17.35;;
46084;SDS011;31823;47.032;8.310;2022-11-13T15:15:18;34.17;;;18.50;;
46084;SDS011;31823;47.032;8.310;2022-11-13T15:17:54;30.98;;;17.55;;
46084;SDS011;31823;47.032;8.310;2022-11-13T15:20:27;30.75;;;15.82;;
46084;SDS011;31823;47.032;8.310;2022-11-13T15:22:54;33.42;;;17.75;;
46084;SDS011;31823;47.032;8.310;2022-11-13T15:25:23;30.00;;;17.05;;
46084;SDS011;31823;47.032;8.310;2022-11-13T15:27:49;32.42;;;17.98;;
46084;SDS011;31823;47.032;8.310;2022-11-13T15:30:15;28.88;;;15.90;;
46084;SDS011;31823;47.032;8.310;2022-11-13T15:32:42;27.48;;;15.40;;
46084;SDS011;31823;47.032;8.310;2022-11-13T15:35:11;26.52;;;15.60;;
46084;SDS011;31823;47.032;8.310;2022-11-13T15:37:39;29.60;;;16.33;;
46084;SDS011;31823;47.032;8.310;2022-11-13T15:40:05;32.30;;;16.73;;
46084;SDS011;31823;47.032;8.310;2022-11-13T15:42:32;30.38;;;17.05;;
46084;SDS011;31823;47.032;8.310;2022-11-13T15:44:59;27.77;;;15.27;;
46084;SDS011;31823;47.032;8.310;2022-11-13T15:49:55;28.08;;;16.02;;
46084;SDS011;31823;47.032;8.310;2022-11-13T15:52:21;29.27;;;16.52;;
46084;SDS011;31823;47.032;8.310;2022-11-13T15:54:49;27.20;;;14.95;;
46084;SDS011;31823;47.032;8.310;2022-11-13T15:57:17;24.85;;;13.20;;
46084;SDS011;31823;47.032;8.310;2022-11-13T15:59:44;24.80;;;13.77;;
46084;SDS011;31823;47.032;8.310;2022-11-13T16:02:10;22.17;;;12.30;;
46084;SDS011;31823;47.032;8.310;2022-11-13T16:04:35;25.65;;;13.52;;
46084;SDS011;31823;47.032;8.310;2022-11-13T16:07:03;23.15;;;13.27;;
46084;SDS011;31823;47.032;8.310;2022-11-13T16:09:29;26.27;;;14.85;;
46084;SDS011;31823;47.032;8.310;2022-11-13T16:11:55;25.65;;;14.13;;
46084;SDS011;31823;47.032;8.310;2022-11-13T16:14:21;24.40;;;12.95;;
46084;SDS011;31823;47.032;8.310;2022-11-13T16:16:46;22.60;;;13.52;;
46084;SDS011;31823;47.032;8.310;2022-11-13T16:19:18;24.52;;;13.10;;
46084;SDS011;31823;47.032;8.310;2022-11-13T16:21:47;23.80;;;14.15;;
46084;SDS011;31823;47.032;8.310;2022-11-13T16:24:12;23.65;;;13.85;;
46084;SDS011;31823;47.032;8.310;2022-11-13T16:26:38;23.75;;;13.85;;
46084;SDS011;31823;47.032;8.310;2022-11-13T16:29:18;24.23;;;14.32;;
46084;SDS011;31823;47.032;8.310;2022-11-13T16:31:45;21.33;;;12.63;;
46084;SDS011;31823;47.032;8.310;2022-11-13T16:34:11;19.55;;;12.20;;
46084;SDS011;31823;47.032;8.310;2022-11-13T16:36:36;22.02;;;12.30;;
46084;SDS011;31823;47.032;8.310;2022-11-13T16:39:03;25.52;;;14.52;;
46084;SDS011;31823;47.032;8.310;2022-11-13T16:41:29;23.85;;;14.38;;